Time;durP1;ratioP1;P1;durP2;ratioP2;P2;SDS_P1;SDS_P2;PMS_P1;PMS_P2;Temp;Humidity;BMP_temperature;BMP_pressure;BME280_temperature;BME280_humidity;BME280_pressure;Samples;Min_cycle;Max_cycle;Signal;HPM_P1;HPM_P2
2020/12/04 00:24:13;;;;;;;12.67;6.87;;;2.00;99.90;;;;;;11802021;23;20239;-86
2020/12/04 00:29:44;;;;;;;11.37;6.90;;;2.00;99.90;;;;;;10338445;28;20210;-86
2020/12/04 00:47:28;;;;;;;11.77;7.10;;;2.00;99.90;;;;;;10549905;23;20254;-85
2020/12/04 01:32:44;;;;;;;12.87;7.50;;;1.40;99.90;;;;;;10318495;28;20212;-81
2020/12/04 01:38:05;;;;;;;12.80;7.83;;;1.40;99.90;;;;;;10289602;28;20208;-84
2020/12/04 01:43:27;;;;;;;12.83;7.87;;;1.40;99.90;;;;;;10306304;28;20295;-85
2020/12/04 01:48:49;;;;;;;16.67;8.90;;;1.20;99.90;;;;;;10300208;28;20299;-85
2020/12/04 01:54:12;;;;;;;15.60;8.40;;;1.20;99.90;;;;;;10300192;28;20718;-85
2020/12/04 02:00:05;;;;;;;14.13;8.10;;;1.20;99.90;;;;;;10338396;23;20257;-84
2020/12/04 02:05:28;;;;;;;15.63;8.40;;;1.30;99.90;;;;;;10343341;28;20658;-85
2020/12/04 02:10:57;;;;;;;15.43;9.23;;;1.30;99.90;;;;;;10376999;28;20324;-85
2020/12/04 02:16:20;;;;;;;15.90;9.27;;;1.40;99.90;;;;;;10350015;28;20253;-85
2020/12/04 06:21:56;;;;;;;30.40;15.10;;;1.60;99.90;;;;;;10375890;28;20294;-80
2020/12/04 06:27:40;;;;;;;28.13;15.73;;;1.70;99.90;;;;;;10376401;28;20194;-80
2020/12/04 06:44:31;;;;;;;27.47;15.30;;;1.70;99.90;;;;;;11754833;23;20730;-85
2020/12/04 06:49:53;;;;;;;26.97;15.43;;;1.80;99.90;;;;;;10341856;28;20274;-86
2020/12/04 06:55:14;;;;;;;28.37;15.67;;;2.00;99.90;;;;;;10298609;28;20280;-86
2020/12/04 07:00:36;;;;;;;29.27;16.27;;;1.90;99.90;;;;;;10305713;28;20273;-84
2020/12/04 07:05:58;;;;;;;26.10;15.27;;;2.00;99.90;;;;;;10301560;28;20201;-83
2020/12/04 07:11:19;;;;;;;30.67;16.07;;;2.00;99.90;;;;;;10314583;28;20339;-84
2020/12/04 07:16:42;;;;;;;29.70;16.67;;;2.20;99.90;;;;;;10326251;28;20191;-86
2020/12/04 07:22:03;;;;;;;27.10;15.63;;;2.20;99.90;;;;;;10377329;28;20297;-85
2020/12/04 07:27:27;;;;;;;29.20;16.33;;;2.10;99.90;;;;;;10357281;28;20732;-86
2020/12/04 07:32:51;;;;;;;27.00;16.83;;;2.20;99.90;;;;;;10348104;28;20275;-87
2020/12/04 07:38:14;;;;;;;29.27;17.10;;;2.30;99.90;;;;;;10330069;28;20687;-87
2020/12/04 07:43:35;;;;;;;28.33;16.67;;;2.40;99.90;;;;;;10336772;28;20301;-88
2020/12/04 07:49:07;;;;;;;29.73;16.03;;;2.30;99.90;;;;;;10333139;28;20220;-87
2020/12/04 07:54:29;;;;;;;24.53;14.70;;;2.20;99.90;;;;;;10359124;28;20542;-87
2020/12/04 07:59:58;;;;;;;29.70;16.07;;;2.40;99.90;;;;;;10376398;28;20219;-87
2020/12/04 08:05:22;;;;;;;29.53;15.83;;;2.30;99.90;;;;;;10374967;28;20321;-88
2020/12/04 08:10:44;;;;;;;30.17;16.07;;;2.30;99.90;;;;;;10366756;28;20219;-87
2020/12/04 08:16:07;;;;;;;28.90;16.03;;;2.30;99.90;;;;;;10348546;23;20315;-83
2020/12/04 08:21:29;;;;;;;25.50;15.30;;;2.40;99.90;;;;;;10368801;28;20225;-83
2020/12/04 08:27:11;;;;;;;25.03;14.77;;;2.50;99.90;;;;;;10378203;28;20198;-83
2020/12/04 08:32:33;;;;;;;27.77;16.00;;;2.40;99.90;;;;;;10381090;28;20209;-84
2020/12/04 08:38:05;;;;;;;24.53;14.27;;;2.60;99.90;;;;;;10395326;28;20241;-84
2020/12/04 08:43:27;;;;;;;25.13;14.40;;;2.60;99.90;;;;;;10382941;28;20586;-83
2020/12/04 08:48:49;;;;;;;26.23;14.40;;;2.60;99.90;;;;;;10375920;28;20210;-83
2020/12/04 08:54:11;;;;;;;26.67;15.27;;;2.80;99.90;;;;;;10376228;28;20223;-83
2020/12/04 08:59:33;;;;;;;26.20;14.80;;;2.80;99.90;;;;;;10386848;28;20297;-83
2020/12/04 09:04:54;;;;;;;23.60;13.30;;;2.70;99.90;;;;;;10384467;28;20221;-83
2020/12/04 09:10:18;;;;;;;24.27;13.43;;;2.70;99.90;;;;;;10371686;28;20976;-83
2020/12/04 09:15:40;;;;;;;23.20;13.30;;;2.90;99.90;;;;;;10400917;28;20218;-82
2020/12/04 09:21:02;;;;;;;21.17;12.57;;;2.70;99.90;;;;;;10414742;28;20226;-83
2020/12/04 09:26:24;;;;;;;22.03;12.83;;;2.90;99.90;;;;;;10399759;28;20202;-83
2020/12/04 09:31:46;;;;;;;22.67;13.33;;;3.00;99.90;;;;;;10400291;28;20699;-83
2020/12/04 09:37:20;;;;;;;24.03;13.73;;;3.10;99.90;;;;;;10385479;28;21064;-80
2020/12/04 09:42:42;;;;;;;22.63;13.30;;;3.20;99.90;;;;;;10386611;28;20210;-83
2020/12/04 09:48:04;;;;;;;22.93;12.53;;;3.10;99.90;;;;;;10385804;28;20253;-83
2020/12/04 09:53:26;;;;;;;21.53;13.30;;;3.20;99.90;;;;;;10375695;28;20325;-82
2020/12/04 09:58:48;;;;;;;23.23;13.50;;;3.20;99.90;;;;;;10395224;28;20300;-85
2020/12/04 10:04:10;;;;;;;20.03;11.87;;;3.30;99.90;;;;;;10418948;28;20218;-84
2020/12/04 10:09:32;;;;;;;22.03;12.97;;;3.30;99.90;;;;;;10383277;28;20224;-85
2020/12/04 10:14:54;;;;;;;17.53;11.30;;;3.30;99.90;;;;;;10384844;28;20207;-84
2020/12/04 10:20:16;;;;;;;19.53;11.67;;;3.30;99.90;;;;;;10412100;28;20848;-85
2020/12/04 10:25:40;;;;;;;22.00;12.80;;;3.40;99.90;;;;;;10411997;28;20289;-84
2020/12/04 10:31:03;;;;;;;25.63;13.10;;;3.60;99.90;;;;;;10380776;28;20674;-85
2020/12/04 10:36:24;;;;;;;23.33;12.93;;;3.70;99.90;;;;;;10381166;28;20209;-84
2020/12/04 10:41:46;;;;;;;22.63;12.47;;;3.80;99.90;;;;;;10395928;28;20306;-84
2020/12/04 10:47:08;;;;;;;18.20;11.00;;;3.90;99.90;;;;;;10346630;28;20274;-83
2020/12/04 10:52:30;;;;;;;19.03;10.93;;;4.10;99.90;;;;;;10360716;28;20286;-84
2020/12/04 10:57:51;;;;;;;18.67;11.00;;;4.30;99.90;;;;;;10393456;28;20276;-84
2020/12/04 11:03:21;;;;;;;22.37;11.87;;;4.40;99.90;;;;;;10368663;28;20245;-84
2020/12/04 11:08:46;;;;;;;17.30;10.10;;;4.30;99.90;;;;;;10383066;28;20214;-83
2020/12/04 11:14:08;;;;;;;18.60;10.33;;;4.30;99.90;;;;;;10393708;28;20216;-84
2020/12/04 11:19:30;;;;;;;23.83;11.43;;;4.40;99.90;;;;;;10379384;28;20246;-85
2020/12/04 11:24:52;;;;;;;16.53;9.93;;;4.70;99.90;;;;;;10378984;28;20222;-84
2020/12/04 11:30:16;;;;;;;17.80;10.07;;;4.60;99.90;;;;;;10378363;28;20242;-84
2020/12/04 11:35:38;;;;;;;21.23;11.10;;;4.60;99.90;;;;;;10337735;28;20206;-82
2020/12/04 11:41:00;;;;;;;18.30;10.27;;;4.70;99.90;;;;;;10338065;28;20377;-84
2020/12/04 11:46:22;;;;;;;19.40;10.57;;;4.70;99.90;;;;;;10337131;28;20297;-83
2020/12/04 11:51:45;;;;;;;15.07;9.07;;;4.60;99.90;;;;;;10353329;28;20194;-83
2020/12/04 11:57:06;;;;;;;17.73;10.03;;;4.70;99.90;;;;;;10375395;28;20574;-85
2020/12/04 12:02:30;;;;;;;17.17;10.60;;;4.80;99.90;;;;;;10377847;28;20218;-84
2020/12/04 12:07:53;;;;;;;20.17;9.67;;;4.90;99.90;;;;;;10386816;28;20296;-81
2020/12/04 12:13:14;;;;;;;17.80;10.37;;;4.80;99.90;;;;;;10390759;28;20194;-83
2020/12/04 12:18:36;;;;;;;15.27;9.00;;;5.00;99.90;;;;;;10423706;28;20229;-82
2020/12/04 12:23:58;;;;;;;16.07;9.33;;;5.00;99.90;;;;;;10444059;28;20209;-84
2020/12/04 12:29:19;;;;;;;15.83;9.97;;;5.00;99.90;;;;;;10428361;28;20301;-81
2020/12/04 12:35:00;;;;;;;20.67;10.27;;;5.20;99.90;;;;;;10416649;28;20276;-80
2020/12/04 12:40:23;;;;;;;15.43;8.87;;;5.10;99.90;;;;;;10389766;28;20226;-80
2020/12/04 12:45:44;;;;;;;16.67;9.90;;;5.10;99.90;;;;;;10381475;28;20233;-80
2020/12/04 12:51:06;;;;;;;15.97;9.63;;;5.00;99.90;;;;;;10350675;28;20284;-79
2020/12/04 12:56:28;;;;;;;20.03;9.07;;;4.90;99.90;;;;;;10383460;28;20280;-80
2020/12/04 13:01:50;;;;;;;15.53;9.47;;;4.90;99.90;;;;;;10385600;28;20274;-80
2020/12/04 13:07:11;;;;;;;13.63;8.97;;;5.00;99.90;;;;;;10387099;28;20222;-80
2020/12/04 13:12:34;;;;;;;15.90;9.13;;;5.10;99.90;;;;;;10378059;28;20274;-79
2020/12/04 13:17:55;;;;;;;16.57;8.77;;;5.10;99.90;;;;;;10382667;28;20218;-79
2020/12/04 13:23:18;;;;;;;16.43;9.10;;;5.20;99.90;;;;;;10351934;28;20296;-79
2020/12/04 13:28:40;;;;;;;15.10;9.07;;;5.20;99.90;;;;;;10371872;28;20245;-79
2020/12/04 13:34:02;;;;;;;12.97;8.63;;;5.20;99.90;;;;;;10372571;28;20281;-79
2020/12/04 13:39:23;;;;;;;14.87;8.73;;;5.40;99.90;;;;;;10375990;28;20237;-79
2020/12/04 13:44:46;;;;;;;14.07;8.90;;;5.40;99.90;;;;;;10345195;28;20246;-81
2020/12/04 13:50:08;;;;;;;15.67;9.17;;;5.50;99.90;;;;;;10386312;28;20280;-81
2020/12/04 13:55:29;;;;;;;14.70;8.77;;;5.50;99.90;;;;;;10388637;28;20248;-80
2020/12/04 14:00:51;;;;;;;15.40;9.27;;;5.40;99.90;;;;;;10383048;28;20646;-80
2020/12/04 14:06:13;;;;;;;12.70;8.40;;;5.30;99.90;;;;;;10372237;28;20222;-80
2020/12/04 14:11:35;;;;;;;15.50;8.80;;;5.30;99.90;;;;;;10380273;28;20237;-79
2020/12/04 14:16:58;;;;;;;13.83;8.47;;;4.70;99.90;;;;;;10396168;28;20229;-81
2020/12/04 14:22:19;;;;;;;15.47;9.40;;;4.50;99.90;;;;;;10386332;28;20771;-82
2020/12/04 14:27:41;;;;;;;15.50;8.77;;;4.80;99.90;;;;;;10373130;28;20278;-79
2020/12/04 14:33:03;;;;;;;11.67;7.83;;;4.60;99.90;;;;;;10383207;28;20252;-80
2020/12/04 14:44:05;;;;;;;16.00;8.93;;;4.30;99.90;;;;;;10366125;28;20662;-82
2020/12/04 14:49:27;;;;;;;14.37;8.77;;;4.10;99.90;;;;;;10385923;28;20694;-80
2020/12/04 14:54:48;;;;;;;15.37;9.57;;;4.00;99.90;;;;;;10378054;28;20197;-81
2020/12/04 15:00:12;;;;;;;14.70;9.70;;;3.90;99.90;;;;;;10375852;28;20738;-81
2020/12/04 15:05:35;;;;;;;18.77;10.53;;;3.80;99.90;;;;;;10378062;28;20221;-81
2020/12/04 15:10:57;;;;;;;14.67;10.13;;;3.70;99.90;;;;;;10376490;28;20241;-80
2020/12/04 15:16:18;;;;;;;17.10;10.53;;;3.60;99.90;;;;;;10359427;28;20644;-79
2020/12/04 15:21:41;;;;;;;15.87;9.77;;;3.50;99.90;;;;;;10401853;28;20586;-81
2020/12/04 15:27:02;;;;;;;20.13;11.83;;;3.50;99.90;;;;;;10396468;28;20692;-81
2020/12/04 15:32:24;;;;;;;19.83;11.67;;;3.30;99.90;;;;;;10416921;28;20302;-81
2020/12/04 15:37:46;;;;;;;21.10;11.53;;;3.10;99.90;;;;;;10416187;28;20206;-80
2020/12/04 15:43:07;;;;;;;18.73;11.53;;;3.10;99.90;;;;;;10398709;28;20683;-80
2020/12/04 15:48:29;;;;;;;20.00;11.43;;;3.00;99.90;;;;;;10385797;28;20277;-80
2020/12/04 15:53:51;;;;;;;20.47;12.10;;;3.10;99.90;;;;;;10383019;28;20203;-80
2020/12/04 15:59:13;;;;;;;19.20;11.47;;;3.10;99.90;;;;;;10348850;28;20317;-80
2020/12/04 16:04:35;;;;;;;21.77;12.33;;;3.00;99.90;;;;;;10332841;28;20285;-79
2020/12/04 16:09:57;;;;;;;18.20;11.03;;;2.90;99.90;;;;;;10370834;28;20302;-80
2020/12/04 16:16:09;;;;;;;24.90;12.87;;;2.80;99.90;;;;;;10369380;28;20298;-77
2020/12/04 16:22:00;;;;;;;16.27;11.13;;;3.00;99.90;;;;;;10378302;28;20230;-78
2020/12/04 16:28:10;;;;;;;22.23;13.27;;;3.10;99.90;;;;;;10369747;28;20229;-78
2020/12/04 16:34:50;;;;;;;20.17;11.50;;;3.20;99.90;;;;;;10405283;28;20194;-77
2020/12/04 16:41:03;;;;;;;19.40;11.97;;;3.20;99.90;;;;;;10402774;28;20859;-77
2020/12/04 16:47:19;;;;;;;21.47;12.80;;;3.10;99.90;;;;;;10324881;28;20205;-77
2020/12/04 16:53:26;;;;;;;20.50;11.80;;;3.00;99.90;;;;;;10325146;28;20219;-78
2020/12/04 16:58:54;;;;;;;20.07;11.93;;;3.10;99.90;;;;;;10340014;28;20235;-77
2020/12/04 17:04:15;;;;;;;17.00;10.30;;;3.10;99.90;;;;;;10330680;28;20219;-77
2020/12/04 17:09:38;;;;;;;21.40;13.27;;;3.00;99.90;;;;;;10350133;28;20245;-78
2020/12/04 17:15:00;;;;;;;21.17;12.93;;;3.00;99.90;;;;;;10380174;28;20212;-78
2020/12/04 17:20:23;;;;;;;18.83;12.30;;;3.10;99.90;;;;;;10422117;28;20675;-78
2020/12/04 17:25:48;;;;;;;22.67;13.17;;;3.20;99.90;;;;;;10404985;28;20244;-79
2020/12/04 17:31:10;;;;;;;19.97;11.67;;;3.30;99.90;;;;;;10365916;28;20659;-78
2020/12/04 17:36:31;;;;;;;21.60;11.57;;;3.30;99.90;;;;;;10333707;28;20597;-77
2020/12/04 17:41:54;;;;;;;18.83;12.10;;;3.10;99.90;;;;;;10335470;28;20312;-78
2020/12/04 17:47:16;;;;;;;19.53;12.50;;;3.10;99.90;;;;;;10372884;28;20220;-79
2020/12/04 17:52:38;;;;;;;20.23;11.83;;;3.30;99.90;;;;;;10367058;28;20290;-76
2020/12/04 17:58:00;;;;;;;22.03;11.67;;;3.40;99.90;;;;;;10360368;28;20632;-78
2020/12/04 18:03:22;;;;;;;19.33;11.63;;;3.70;99.90;;;;;;10334303;28;20336;-78
2020/12/04 18:08:43;;;;;;;17.07;10.43;;;3.60;99.90;;;;;;10339264;28;20310;-78
2020/12/04 18:14:08;;;;;;;24.30;14.33;;;3.80;99.90;;;;;;10351515;28;20276;-77
2020/12/04 18:19:29;;;;;;;19.93;11.43;;;3.90;99.90;;;;;;10396014;28;20235;-77
2020/12/04 18:24:51;;;;;;;19.20;11.77;;;3.90;99.90;;;;;;10408542;28;20300;-76
2020/12/04 18:30:13;;;;;;;18.73;10.93;;;3.90;99.90;;;;;;10374629;28;20650;-79
2020/12/04 18:35:35;;;;;;;17.40;10.77;;;3.50;99.90;;;;;;10377359;28;20198;-80
2020/12/04 18:40:56;;;;;;;20.00;11.70;;;3.30;99.90;;;;;;10372148;28;20602;-83
2020/12/04 18:46:19;;;;;;;18.77;10.60;;;3.40;99.90;;;;;;10374134;28;20312;-84
2020/12/04 18:51:43;;;;;;;17.83;11.03;;;3.50;99.90;;;;;;10359975;28;20274;-83
2020/12/04 18:57:05;;;;;;;17.73;10.67;;;3.80;99.90;;;;;;10351151;28;20218;-77
2020/12/04 19:02:27;;;;;;;17.50;10.47;;;3.50;99.90;;;;;;10345252;28;20214;-78
2020/12/04 19:07:49;;;;;;;18.20;10.60;;;3.50;99.90;;;;;;10347466;28;20687;-78
2020/12/04 19:13:10;;;;;;;17.10;11.00;;;3.80;99.90;;;;;;10344419;28;20777;-77
2020/12/04 19:18:32;;;;;;;20.10;12.53;;;4.00;99.90;;;;;;10344405;28;20992;-77
2020/12/04 19:23:55;;;;;;;17.00;11.40;;;3.90;99.90;;;;;;10335943;28;20576;-77
2020/12/04 19:29:17;;;;;;;18.77;11.33;;;4.00;99.90;;;;;;10364303;28;20230;-77
2020/12/04 19:34:40;;;;;;;17.57;11.30;;;3.90;99.90;;;;;;10365893;28;20194;-79
2020/12/04 19:40:01;;;;;;;19.10;11.67;;;4.00;99.90;;;;;;10347631;28;20655;-78
2020/12/04 19:45:23;;;;;;;16.77;10.73;;;4.00;99.90;;;;;;10353897;28;20238;-77
2020/12/04 19:50:45;;;;;;;20.63;12.17;;;3.90;99.90;;;;;;10371127;28;20316;-78
2020/12/04 19:56:06;;;;;;;18.13;11.23;;;3.90;99.90;;;;;;10329281;28;20197;-78
2020/12/04 20:01:28;;;;;;;20.50;12.40;;;3.90;99.90;;;;;;10348546;28;20683;-78
2020/12/04 20:06:50;;;;;;;17.07;11.03;;;4.00;99.90;;;;;;10341194;28;20694;-78
2020/12/04 20:12:12;;;;;;;17.07;10.43;;;3.80;99.90;;;;;;10336593;28;20737;-78
2020/12/04 20:17:34;;;;;;;21.20;11.63;;;3.60;99.90;;;;;;10376669;28;20221;-78
2020/12/04 20:22:58;;;;;;;17.40;10.53;;;3.80;99.90;;;;;;10387403;28;20824;-78
2020/12/04 20:28:20;;;;;;;17.93;9.80;;;3.70;99.90;;;;;;10385189;28;20221;-78
2020/12/04 20:33:42;;;;;;;17.53;10.10;;;4.00;99.90;;;;;;10412093;28;20189;-77
2020/12/04 20:39:04;;;;;;;16.70;10.87;;;4.00;99.90;;;;;;10393115;28;20290;-78
2020/12/04 20:44:26;;;;;;;16.83;10.47;;;3.90;99.90;;;;;;10330426;28;20675;-77
2020/12/04 20:49:47;;;;;;;18.23;10.93;;;4.00;99.90;;;;;;10352816;28;20217;-77
2020/12/04 20:55:10;;;;;;;17.80;11.77;;;4.10;99.90;;;;;;10334386;28;20286;-77
2020/12/04 21:00:31;;;;;;;18.77;11.70;;;4.00;99.90;;;;;;10392380;28;20330;-77
2020/12/04 21:05:53;;;;;;;20.83;11.40;;;3.80;99.90;;;;;;10394538;28;20242;-77
2020/12/04 21:11:15;;;;;;;19.47;11.80;;;3.60;99.90;;;;;;10337296;28;20346;-77
2020/12/04 21:16:37;;;;;;;20.83;12.50;;;3.70;99.90;;;;;;10374772;28;20345;-78
2020/12/04 21:21:58;;;;;;;18.93;11.77;;;3.80;99.90;;;;;;10382196;28;20260;-79
2020/12/04 21:27:21;;;;;;;18.17;11.63;;;3.80;99.90;;;;;;10382925;28;20218;-78
2020/12/04 21:32:42;;;;;;;20.47;11.67;;;3.80;99.90;;;;;;10365424;28;20273;-79
2020/12/04 21:38:04;;;;;;;19.33;11.40;;;3.50;99.90;;;;;;10361688;28;20213;-79
2020/12/04 21:43:26;;;;;;;18.90;12.40;;;3.50;99.90;;;;;;10363621;28;20241;-79
2020/12/04 21:48:47;;;;;;;19.43;12.57;;;3.40;99.90;;;;;;10374313;28;20215;-77
2020/12/04 21:54:09;;;;;;;19.53;12.10;;;3.40;99.90;;;;;;10386905;28;20194;-78
2020/12/04 21:59:31;;;;;;;16.53;11.17;;;3.40;99.90;;;;;;10391126;28;20247;-79
2020/12/04 22:04:53;;;;;;;21.60;12.67;;;3.20;99.90;;;;;;10374390;28;20240;-78
2020/12/04 22:10:14;;;;;;;21.47;12.73;;;3.10;99.90;;;;;;10376947;28;20268;-77
2020/12/04 22:15:38;;;;;;;21.83;12.83;;;3.30;99.90;;;;;;10375811;28;20304;-77
2020/12/04 22:21:00;;;;;;;20.90;12.17;;;3.20;99.90;;;;;;10413570;28;20208;-77
2020/12/04 22:26:23;;;;;;;17.90;11.20;;;3.40;99.90;;;;;;10419557;28;20305;-78
2020/12/04 22:31:45;;;;;;;19.83;12.10;;;3.30;99.90;;;;;;10376925;28;20668;-78
2020/12/04 22:37:07;;;;;;;17.60;12.07;;;3.10;99.90;;;;;;10375126;28;20218;-78
2020/12/04 22:42:29;;;;;;;19.47;13.30;;;3.50;99.90;;;;;;10377444;28;20220;-78
2020/12/04 22:47:51;;;;;;;20.53;13.10;;;3.60;99.90;;;;;;10376651;28;20275;-78
2020/12/04 22:53:12;;;;;;;19.33;12.87;;;3.60;99.90;;;;;;10375851;28;20270;-78
2020/12/04 22:58:34;;;;;;;18.90;13.30;;;3.50;99.90;;;;;;10356982;28;20307;-78
2020/12/04 23:03:57;;;;;;;20.00;12.57;;;3.50;99.90;;;;;;10335642;28;20608;-78
2020/12/04 23:09:18;;;;;;;20.83;13.13;;;3.40;99.90;;;;;;10335032;28;20765;-77
2020/12/04 23:14:40;;;;;;;21.13;13.27;;;3.20;99.90;;;;;;10332928;28;20232;-78
2020/12/04 23:20:03;;;;;;;22.33;14.23;;;3.10;99.90;;;;;;10394316;28;20271;-78
2020/12/04 23:25:24;;;;;;;21.80;14.10;;;3.00;99.90;;;;;;10412752;28;20249;-78
2020/12/04 23:30:46;;;;;;;22.93;13.57;;;2.60;99.90;;;;;;10408475;28;20244;-77
2020/12/04 23:36:08;;;;;;;22.27;14.80;;;2.40;99.90;;;;;;10371292;28;20270;-78
2020/12/04 23:41:29;;;;;;;21.60;14.10;;;2.50;99.90;;;;;;10342374;28;20313;-78
2020/12/04 23:46:51;;;;;;;23.53;14.70;;;2.30;99.90;;;;;;10331109;28;20238;-78
2020/12/04 23:52:13;;;;;;;20.63;14.37;;;2.20;99.90;;;;;;10350073;28;20253;-78
2020/12/04 23:57:35;;;;;;;24.97;15.60;;;2.10;99.90;;;;;;10370645;28;20314;-78
